createdAt,value
2022-09-10T00:00:33.688Z,988.99
2022-09-10T00:01:33.739Z,989.05
2022-09-10T00:02:33.771Z,989.02
2022-09-10T00:03:33.661Z,989.03
2022-09-10T00:04:33.666Z,989.02
2022-09-10T00:05:33.643Z,989.04
2022-09-10T00:06:33.635Z,988.99
2022-09-10T00:07:33.632Z,989.00
2022-09-10T00:08:33.731Z,988.98
2022-09-10T00:09:33.634Z,989.03
2022-09-10T00:10:33.616Z,988.99
2022-09-10T00:11:33.596Z,989.02
2022-09-10T00:12:33.618Z,989.04
2022-09-10T00:13:33.585Z,989.00
2022-09-10T00:14:33.618Z,989.05
2022-09-10T00:15:33.592Z,988.99
2022-09-10T00:16:33.596Z,988.96
2022-09-10T00:17:33.556Z,989.00
2022-09-10T00:18:33.547Z,988.98
2022-09-10T00:19:33.540Z,988.93
2022-09-10T00:20:33.528Z,988.94
2022-09-10T00:21:33.530Z,988.89
2022-09-10T00:22:33.513Z,988.97
2022-09-10T00:23:33.508Z,989.00
2022-09-10T00:24:33.501Z,988.95
2022-09-10T00:25:33.490Z,988.97
2022-09-10T00:26:33.826Z,989.03
2022-09-10T00:27:33.471Z,988.95
2022-09-10T00:28:33.504Z,988.92
2022-09-10T00:29:33.459Z,988.96
2022-09-10T00:31:33.662Z,988.97
2022-09-10T00:32:33.580Z,988.98
2022-09-10T00:33:33.595Z,988.99
2022-09-10T00:34:34.656Z,988.96
2022-09-10T00:35:34.652Z,988.94
2022-09-10T00:36:34.684Z,989.01
2022-09-10T00:37:34.631Z,989.04
2022-09-10T00:38:34.674Z,989.03
2022-09-10T00:39:34.676Z,989.06
2022-09-10T00:40:35.526Z,989.05
2022-09-10T00:41:34.596Z,989.08
2022-09-10T00:42:34.589Z,989.12
2022-09-10T00:43:34.581Z,989.09
2022-09-10T00:44:35.709Z,989.12
2022-09-10T00:45:35.632Z,989.12
2022-09-10T00:46:34.591Z,989.10
2022-09-10T00:47:34.559Z,989.14
2022-09-10T00:48:34.576Z,989.09
2022-09-10T00:49:34.543Z,989.14
2022-09-10T00:50:34.518Z,989.16
2022-09-10T00:51:34.514Z,989.14
2022-09-10T00:52:39.447Z,989.11
2022-09-10T00:53:36.504Z,989.10
2022-09-10T00:54:34.486Z,989.15
2022-09-10T00:55:34.478Z,989.04
2022-09-10T00:56:34.484Z,989.04
2022-09-10T00:57:34.476Z,989.00
2022-09-10T00:58:34.539Z,989.02
2022-09-10T00:59:34.461Z,989.10
2022-09-10T01:00:34.490Z,989.05
2022-09-10T01:01:34.550Z,989.07
2022-09-10T01:02:34.434Z,989.09
2022-09-10T01:03:34.421Z,989.02
2022-09-10T01:04:34.410Z,988.99
2022-09-10T01:05:34.409Z,989.02
2022-09-10T01:06:34.401Z,989.00
2022-09-10T01:07:34.399Z,989.03
2022-09-10T01:08:34.454Z,989.07
2022-09-10T01:09:34.375Z,989.03
2022-09-10T01:10:34.373Z,989.08
2022-09-10T01:11:34.944Z,988.94
2022-09-10T01:12:36.104Z,988.99
2022-09-10T01:13:35.356Z,989.01
2022-09-10T01:14:34.339Z,989.03
2022-09-10T01:15:34.332Z,989.05
2022-09-10T01:16:34.400Z,988.99
2022-09-10T01:17:34.369Z,989.03
2022-09-10T01:18:34.412Z,989.05
2022-09-10T01:19:34.310Z,988.97
2022-09-10T01:20:34.346Z,989.04
2022-09-10T01:21:35.031Z,989.00
2022-09-10T01:22:35.272Z,988.98
2022-09-10T01:23:34.272Z,989.05
2022-09-10T01:24:34.262Z,989.07
2022-09-10T01:25:34.241Z,989.01
2022-09-10T01:26:35.239Z,989.10
2022-09-10T01:27:34.231Z,989.11
2022-09-10T01:28:34.272Z,989.09
2022-09-10T01:29:34.232Z,989.07
2022-09-10T01:30:34.210Z,989.08
2022-09-10T01:31:34.289Z,989.07
2022-09-10T01:32:34.195Z,989.13
2022-09-10T01:33:34.197Z,989.07
2022-09-10T01:34:34.175Z,989.06
2022-09-10T01:35:34.175Z,989.12
2022-09-10T01:36:34.162Z,989.09
2022-09-10T01:37:34.162Z,989.08
2022-09-10T01:38:34.266Z,989.00
2022-09-10T01:39:34.230Z,989.03
2022-09-10T01:40:34.124Z,989.04
2022-09-10T01:41:34.118Z,989.01
2022-09-10T01:42:34.109Z,989.01
2022-09-10T01:43:34.111Z,989.01
2022-09-10T01:44:34.101Z,989.04
2022-09-10T01:45:34.144Z,988.99
2022-09-10T01:46:34.083Z,989.08
2022-09-10T01:47:34.072Z,989.01
2022-09-10T01:48:34.064Z,988.98
2022-09-10T01:49:34.059Z,989.02
2022-09-10T01:50:34.061Z,989.04
2022-09-10T01:51:34.034Z,989.09
2022-09-10T01:52:34.037Z,989.04
2022-09-10T01:53:34.026Z,989.06
2022-09-10T01:54:34.029Z,989.00
2022-09-10T01:55:34.004Z,989.04
2022-09-10T01:56:34.001Z,989.03
2022-09-10T01:57:33.989Z,989.04
2022-09-10T01:58:33.982Z,989.00
2022-09-10T01:59:33.978Z,989.02
2022-09-10T02:00:33.975Z,988.89
2022-09-10T02:01:33.974Z,988.95
2022-09-10T02:02:33.948Z,989.00
2022-09-10T02:03:33.941Z,988.96
2022-09-10T02:04:33.941Z,988.99
2022-09-10T02:05:33.928Z,989.00
2022-09-10T02:06:33.924Z,988.99
2022-09-10T02:07:33.908Z,988.96
2022-09-10T02:08:33.910Z,988.99
2022-09-10T02:09:33.903Z,988.97
2022-09-10T02:10:33.896Z,988.96
2022-09-10T02:11:33.885Z,989.00
2022-09-10T02:12:33.870Z,988.99
2022-09-10T02:13:33.871Z,988.95
2022-09-10T02:14:33.857Z,988.93
2022-09-10T02:15:33.860Z,989.00
2022-09-10T02:16:34.058Z,988.98
2022-09-10T02:17:33.831Z,988.95
2022-09-10T02:18:33.841Z,988.94
2022-09-10T02:19:33.816Z,988.96
2022-09-10T02:20:33.819Z,988.95
2022-09-10T02:21:33.808Z,988.95
2022-09-10T02:22:33.834Z,988.94
2022-09-10T02:23:33.785Z,988.96
2022-09-10T02:24:33.785Z,988.97
2022-09-10T02:25:33.776Z,989.00
2022-09-10T02:26:33.772Z,989.02
2022-09-10T02:27:33.761Z,988.99
2022-09-10T02:28:33.758Z,988.97
2022-09-10T02:29:33.744Z,989.02
2022-09-10T02:30:33.736Z,989.01
2022-09-10T02:31:33.762Z,989.00
2022-09-10T02:32:33.731Z,989.04
2022-09-10T02:33:33.715Z,988.99
2022-09-10T02:34:34.564Z,989.05
2022-09-10T02:35:33.701Z,989.04
2022-09-10T02:36:33.704Z,989.03
2022-09-10T02:37:34.479Z,989.08
2022-09-10T02:38:33.677Z,989.05
2022-09-10T02:39:33.694Z,989.06
2022-09-10T02:40:33.648Z,988.99
2022-09-10T02:41:33.669Z,989.00
2022-09-10T02:42:33.636Z,989.01
2022-09-10T02:43:34.556Z,989.03
2022-09-10T02:44:33.621Z,989.03
2022-09-10T02:45:33.665Z,989.00
2022-09-10T02:46:33.604Z,989.03
2022-09-10T02:47:33.601Z,989.01
2022-09-10T02:48:33.590Z,989.00
2022-09-10T02:49:33.584Z,989.02
2022-09-10T02:50:33.581Z,989.05
2022-09-10T02:51:33.570Z,989.11
2022-09-10T02:52:33.557Z,989.04
2022-09-10T02:53:33.545Z,989.03
2022-09-10T02:54:33.538Z,988.98
2022-09-10T02:55:33.529Z,989.02
2022-09-10T02:56:33.531Z,989.04
2022-09-10T02:57:33.528Z,989.09
2022-09-10T02:58:33.513Z,989.08
2022-09-10T02:59:33.501Z,989.05
2022-09-10T03:00:33.494Z,989.07
2022-09-10T03:01:33.486Z,989.04
2022-09-10T03:02:33.492Z,989.06
2022-09-10T03:03:33.475Z,989.05
2022-09-10T03:04:33.462Z,989.01
2022-09-10T03:05:33.490Z,989.06
2022-09-10T03:06:33.449Z,989.01
2022-09-10T03:07:33.445Z,989.02
2022-09-10T03:08:33.430Z,989.06
2022-09-10T03:09:33.426Z,989.05
2022-09-10T03:10:33.423Z,989.09
2022-09-10T03:11:33.408Z,989.10
2022-09-10T03:12:33.400Z,989.07
2022-09-10T03:13:33.400Z,989.03
2022-09-10T03:14:33.378Z,989.07
2022-09-10T03:15:33.373Z,989.04
2022-09-10T03:16:33.426Z,989.05
2022-09-10T03:17:33.355Z,989.05
2022-09-10T03:18:33.357Z,989.04
2022-09-10T03:19:33.336Z,989.00
2022-09-10T03:20:33.332Z,988.99
2022-09-10T03:21:33.324Z,988.94
2022-09-10T03:22:33.319Z,988.99
2022-09-10T03:23:33.312Z,989.01
2022-09-10T03:24:33.304Z,989.00
2022-09-10T03:25:33.298Z,988.98
2022-09-10T03:26:33.286Z,988.96
2022-09-10T03:27:33.272Z,988.93
2022-09-10T03:28:33.275Z,988.97
2022-09-10T03:29:33.260Z,988.98
2022-09-10T03:30:33.250Z,988.98
2022-09-10T03:31:33.271Z,989.02
2022-09-10T03:32:33.235Z,988.99
2022-09-10T03:33:33.235Z,988.98
2022-09-10T03:34:33.221Z,989.03
2022-09-10T03:35:33.206Z,988.94
2022-09-10T03:36:33.200Z,988.97
2022-09-10T03:37:33.190Z,989.02
2022-09-10T03:38:33.184Z,989.04
2022-09-10T03:39:33.232Z,989.03
2022-09-10T03:40:33.167Z,989.08
2022-09-10T03:41:33.165Z,989.12
2022-09-10T03:42:33.149Z,989.03
2022-09-10T03:43:33.147Z,989.05
2022-09-10T03:44:33.138Z,989.05
2022-09-10T03:45:33.209Z,989.04
2022-09-10T03:46:33.135Z,989.07
2022-09-10T03:47:33.111Z,989.09
2022-09-10T03:48:33.102Z,989.09
2022-09-10T03:49:33.091Z,989.08
2022-09-10T03:50:33.101Z,989.22
2022-09-10T03:51:33.083Z,989.16
2022-09-10T03:52:33.074Z,989.17
2022-09-10T03:53:33.059Z,989.13
2022-09-10T03:54:33.058Z,989.13
2022-09-10T03:55:33.081Z,989.12
2022-09-10T03:56:33.045Z,989.18
2022-09-10T03:57:33.038Z,989.14
2022-09-10T03:58:33.026Z,989.15
2022-09-10T03:59:33.014Z,989.10
2022-09-10T04:00:33.007Z,989.12
2022-09-10T04:01:33.003Z,989.14
2022-09-10T04:02:33.000Z,989.15
2022-09-10T04:03:32.990Z,989.23
2022-09-10T04:04:32.976Z,989.17
2022-09-10T04:05:32.967Z,989.13
2022-09-10T04:06:32.958Z,989.19
2022-09-10T04:07:32.950Z,989.14
2022-09-10T04:08:32.958Z,989.15
2022-09-10T04:09:32.931Z,989.07
2022-09-10T04:10:32.925Z,989.10
2022-09-10T04:11:32.916Z,989.07
2022-09-10T04:12:32.919Z,989.12
2022-09-10T04:13:33.583Z,989.05
2022-09-10T04:14:33.898Z,989.03
2022-09-10T04:15:32.883Z,989.04
2022-09-10T04:16:32.886Z,989.06
2022-09-10T04:17:32.869Z,988.99
2022-09-10T04:18:32.896Z,989.01
2022-09-10T04:19:32.852Z,989.06
2022-09-10T04:20:32.845Z,989.06
2022-09-10T04:21:32.835Z,989.03
2022-09-10T04:22:32.831Z,989.05
2022-09-10T04:23:32.837Z,989.04
2022-09-10T04:24:32.813Z,988.99
2022-09-10T04:25:32.798Z,988.95
2022-09-10T04:26:32.795Z,989.01
2022-09-10T04:27:32.781Z,988.98
2022-09-10T04:28:32.798Z,988.96
2022-09-10T04:29:32.779Z,988.95
2022-09-10T04:30:32.768Z,988.99
2022-09-10T04:31:32.788Z,989.01
2022-09-10T04:32:32.749Z,988.96
2022-09-10T04:33:32.739Z,989.01
2022-09-10T04:34:32.737Z,989.03
2022-09-10T04:35:32.721Z,988.97
2022-09-10T04:36:32.719Z,989.02
2022-09-10T04:37:32.724Z,988.95
2022-09-10T04:38:32.703Z,988.96
2022-09-10T04:39:32.737Z,988.98
2022-09-10T04:40:32.695Z,989.03
2022-09-10T04:41:33.602Z,988.98
2022-09-10T04:42:32.673Z,989.01
2022-09-10T04:43:32.664Z,988.99
2022-09-10T04:44:32.653Z,988.98
2022-09-10T04:45:32.683Z,988.96
2022-09-10T04:46:32.636Z,988.99
2022-09-10T04:47:32.639Z,988.97
2022-09-10T04:48:32.646Z,989.04
2022-09-10T04:49:32.616Z,989.09
2022-09-10T04:50:32.608Z,989.04
2022-09-10T04:51:32.595Z,989.01
2022-09-10T04:52:32.586Z,988.97
2022-09-10T04:53:32.600Z,989.06
2022-09-10T04:54:32.573Z,989.03
2022-09-10T04:55:32.564Z,989.02
2022-09-10T04:56:32.556Z,989.00
2022-09-10T04:57:32.552Z,989.01
2022-09-10T04:58:36.654Z,989.04
2022-09-10T04:59:34.541Z,989.10
2022-09-10T05:00:32.530Z,989.07
2022-09-10T05:01:32.523Z,989.11
2022-09-10T05:02:32.549Z,989.05
2022-09-10T05:03:32.519Z,989.09
2022-09-10T05:04:34.023Z,989.10
2022-09-10T05:05:32.491Z,989.02
2022-09-10T05:06:32.478Z,989.02
2022-09-10T05:07:32.504Z,989.01
2022-09-10T05:08:32.464Z,989.00
2022-09-10T05:09:32.459Z,989.06
2022-09-10T05:10:32.445Z,989.05
2022-09-10T05:11:32.462Z,989.04
2022-09-10T05:12:32.430Z,989.03
2022-09-10T05:13:32.423Z,989.09
2022-09-10T05:14:32.427Z,989.05
2022-09-10T05:15:32.407Z,989.05
2022-09-10T05:16:32.432Z,989.06
2022-09-10T05:17:32.387Z,989.11
2022-09-10T05:18:32.381Z,989.15
2022-09-10T05:19:32.388Z,989.16
2022-09-10T05:20:32.364Z,989.11
2022-09-10T05:21:32.366Z,989.15
2022-09-10T05:22:38.432Z,989.17
2022-09-10T05:23:34.361Z,989.15
2022-09-10T05:24:32.334Z,989.19
2022-09-10T05:25:32.330Z,989.16
2022-09-10T05:26:32.319Z,989.18
2022-09-10T05:27:32.308Z,989.16
2022-09-10T05:28:32.302Z,989.18
2022-09-10T05:29:32.293Z,989.19
2022-09-10T05:30:32.288Z,989.19
2022-09-10T05:31:32.290Z,989.18
2022-09-10T05:32:32.259Z,989.15
2022-09-10T05:33:33.254Z,989.19
2022-09-10T05:34:32.254Z,989.23
2022-09-10T05:35:32.251Z,989.15
2022-09-10T05:36:32.233Z,989.12
2022-09-10T05:37:32.224Z,989.12
2022-09-10T05:38:32.214Z,989.16
2022-09-10T05:39:32.342Z,989.12
2022-09-10T05:40:32.207Z,989.12
2022-09-10T05:41:32.190Z,989.12
2022-09-10T05:42:32.181Z,989.12
2022-09-10T05:43:32.176Z,989.10
2022-09-10T05:44:32.167Z,989.14
2022-09-10T05:45:32.193Z,989.14
2022-09-10T05:46:32.151Z,989.15
2022-09-10T05:47:32.144Z,989.09
2022-09-10T05:48:32.174Z,989.13
2022-09-10T05:49:32.129Z,989.12
2022-09-10T05:50:32.129Z,989.12
2022-09-10T05:51:32.119Z,989.15
2022-09-10T05:52:32.103Z,989.13
2022-09-10T05:53:32.110Z,989.15
2022-09-10T05:54:32.088Z,989.12
2022-09-10T05:55:32.078Z,989.13
2022-09-10T05:56:32.079Z,989.13
2022-09-10T05:57:32.064Z,989.13
2022-09-10T05:58:32.092Z,989.14
2022-09-10T05:59:32.050Z,989.22
2022-09-10T06:00:32.043Z,989.12
2022-09-10T06:01:32.054Z,989.15
2022-09-10T06:02:32.067Z,989.17
2022-09-10T06:03:32.023Z,989.18
2022-09-10T06:04:32.015Z,989.21
2022-09-10T06:05:32.005Z,989.18
2022-09-10T06:06:31.994Z,989.16
2022-09-10T06:07:31.988Z,989.20
2022-09-10T06:08:32.037Z,989.16
2022-09-10T06:09:31.975Z,989.11
2022-09-10T06:10:32.006Z,989.16
2022-09-10T06:11:31.948Z,989.13
2022-09-10T06:12:32.949Z,989.14
2022-09-10T06:13:32.550Z,989.13
2022-09-10T06:14:31.931Z,989.13
2022-09-10T06:15:31.926Z,989.12
2022-09-10T06:16:31.943Z,989.17
2022-09-10T06:17:31.908Z,989.11
2022-09-10T06:18:31.908Z,989.16
2022-09-10T06:19:31.899Z,989.18
2022-09-10T06:20:31.885Z,989.16
2022-09-10T06:21:31.876Z,989.06
2022-09-10T06:22:31.871Z,989.10
2022-09-10T06:23:31.922Z,989.10
2022-09-10T06:24:31.857Z,989.17
2022-09-10T06:25:31.846Z,989.10
2022-09-10T06:26:31.839Z,989.13
2022-09-10T06:27:31.966Z,989.10
2022-09-10T06:28:31.855Z,989.14
2022-09-10T06:29:31.822Z,989.16
2022-09-10T06:30:31.834Z,989.14
2022-09-10T06:31:31.801Z,989.17
2022-09-10T06:32:31.785Z,989.11
2022-09-10T06:33:31.785Z,989.22
2022-09-10T06:34:31.771Z,989.17
2022-09-10T06:35:31.765Z,989.17
2022-09-10T06:36:31.752Z,989.13
2022-09-10T06:37:31.835Z,989.13
2022-09-10T06:38:31.797Z,989.15
2022-09-10T06:39:31.734Z,989.15
2022-09-10T06:40:32.157Z,989.20
2022-09-10T06:41:31.721Z,989.22
2022-09-10T06:42:31.740Z,989.24
2022-09-10T06:43:31.762Z,989.22
2022-09-10T06:44:31.695Z,989.26
2022-09-10T06:45:31.712Z,989.24
2022-09-10T06:47:10.727Z,989.26
2022-09-10T06:48:38.604Z,989.26
2022-09-10T06:49:33.657Z,989.27
2022-09-10T06:50:31.659Z,989.26
2022-09-10T06:51:31.642Z,989.24
2022-09-10T06:52:31.637Z,989.28
2022-09-10T06:53:31.628Z,989.26
2022-09-10T06:54:31.614Z,989.28
2022-09-10T06:55:31.625Z,989.30
2022-09-10T06:56:31.595Z,989.31
2022-09-10T06:57:31.594Z,989.28
2022-09-10T06:58:31.685Z,989.24
2022-09-10T06:59:31.581Z,989.27
2022-09-10T07:00:31.564Z,989.25
2022-09-10T07:01:31.646Z,989.23
2022-09-10T07:02:32.120Z,989.28
2022-09-10T07:03:31.554Z,989.23
2022-09-10T07:04:31.550Z,989.22
2022-09-10T07:05:31.533Z,989.23
2022-09-10T07:06:31.535Z,989.30
2022-09-10T07:07:31.511Z,989.28
2022-09-10T07:08:31.524Z,989.33
2022-09-10T07:09:31.495Z,989.32
2022-09-10T07:10:31.502Z,989.27
2022-09-10T07:11:31.491Z,989.24
2022-09-10T07:12:31.474Z,989.25
2022-09-10T07:13:31.460Z,989.32
2022-09-10T07:14:32.456Z,989.26
2022-09-10T07:15:31.483Z,989.30
2022-09-10T07:16:31.467Z,989.32
2022-09-10T07:17:32.152Z,989.36
2022-09-10T07:18:32.423Z,989.33
2022-09-10T07:19:31.421Z,989.33
2022-09-10T07:20:31.410Z,989.35
2022-09-10T07:21:31.406Z,989.36
2022-09-10T07:22:31.392Z,989.33
2022-09-10T07:23:31.382Z,989.37
2022-09-10T07:24:31.376Z,989.41
2022-09-10T07:25:31.372Z,989.40
2022-09-10T07:26:31.372Z,989.42
2022-09-10T07:27:31.355Z,989.36
2022-09-10T07:28:31.385Z,989.41
2022-09-10T07:29:31.439Z,989.41
2022-09-10T07:30:31.341Z,989.43
2022-09-10T07:31:31.330Z,989.45
2022-09-10T07:32:31.311Z,989.40
2022-09-10T07:33:31.301Z,989.49
2022-09-10T07:34:31.299Z,989.40
2022-09-10T07:35:31.312Z,989.42
2022-09-10T07:36:31.281Z,989.43
2022-09-10T07:37:31.278Z,989.45
2022-09-10T07:38:31.276Z,989.48
2022-09-10T07:39:31.253Z,989.45
2022-09-10T07:40:31.255Z,989.48
2022-09-10T07:41:31.251Z,989.46
2022-09-10T07:42:31.234Z,989.46
2022-09-10T07:43:31.225Z,989.51
2022-09-10T07:44:31.221Z,989.47
2022-09-10T07:45:31.241Z,989.48
2022-09-10T07:46:31.198Z,989.49
2022-09-10T07:47:31.189Z,989.48
2022-09-10T07:48:31.218Z,989.45
2022-09-10T07:49:31.174Z,989.47
2022-09-10T07:50:31.171Z,989.49
2022-09-10T07:51:31.161Z,989.50
2022-09-10T07:52:31.158Z,989.47
2022-09-10T07:53:31.654Z,989.46
2022-09-10T07:54:31.147Z,989.50
2022-09-10T07:55:31.139Z,989.50
2022-09-10T07:56:31.131Z,989.56
2022-09-10T07:57:31.116Z,989.50
2022-09-10T07:58:32.182Z,989.55
2022-09-10T07:59:31.100Z,989.49
2022-09-10T08:00:31.088Z,989.51
2022-09-10T08:01:31.113Z,989.55
2022-09-10T08:02:31.095Z,989.50
2022-09-10T08:03:31.067Z,989.54
2022-09-10T08:04:35.881Z,989.60
2022-09-10T08:05:33.047Z,989.52
2022-09-10T08:06:31.044Z,989.54
2022-09-10T08:07:31.036Z,989.60
2022-09-10T08:08:31.032Z,989.66
2022-09-10T08:09:31.014Z,989.59
2022-09-10T08:10:31.006Z,989.59
2022-09-10T08:11:30.998Z,989.63
2022-09-10T08:12:30.993Z,989.62
2022-09-10T08:13:30.988Z,989.61
2022-09-10T08:14:30.973Z,989.65
2022-09-10T08:15:30.976Z,989.63
2022-09-10T08:16:30.970Z,989.67
2022-09-10T08:17:31.039Z,989.69
2022-09-10T08:18:30.969Z,989.69
2022-09-10T08:19:30.946Z,989.71
2022-09-10T08:20:30.938Z,989.73
2022-09-10T08:21:30.929Z,989.68
2022-09-10T08:22:30.927Z,989.74
2022-09-10T08:23:30.904Z,989.76
2022-09-10T08:24:30.894Z,989.71
2022-09-10T08:25:30.899Z,989.78
2022-09-10T08:26:30.883Z,989.76
2022-09-10T08:27:31.676Z,989.74
2022-09-10T08:28:30.868Z,989.79
2022-09-10T08:29:30.855Z,989.76
2022-09-10T08:30:30.860Z,989.77
2022-09-10T08:31:30.838Z,989.87
2022-09-10T08:32:30.845Z,989.86
2022-09-10T08:33:30.841Z,989.82
2022-09-10T08:34:30.813Z,989.87
2022-09-10T08:35:30.815Z,989.85
2022-09-10T08:36:30.805Z,989.84
2022-09-10T08:37:30.797Z,989.88
2022-09-10T08:38:30.791Z,989.80
2022-09-10T08:39:30.776Z,989.87
2022-09-10T08:40:30.779Z,989.84
2022-09-10T08:41:30.764Z,989.84
2022-09-10T08:42:30.764Z,989.78
2022-09-10T08:43:30.756Z,989.81
2022-09-10T08:44:30.741Z,989.87
2022-09-10T08:45:30.772Z,989.81
2022-09-10T08:46:30.721Z,989.81
2022-09-10T08:47:30.739Z,989.80
2022-09-10T08:48:30.715Z,989.80
2022-09-10T08:49:30.696Z,989.86
2022-09-10T08:50:30.692Z,989.81
2022-09-10T08:51:30.688Z,989.79
2022-09-10T08:52:30.750Z,989.85
2022-09-10T08:53:30.666Z,989.88
2022-09-10T08:54:30.666Z,989.88
2022-09-10T08:55:30.653Z,989.90
2022-09-10T08:56:30.675Z,989.88
2022-09-10T08:57:30.661Z,989.82
2022-09-10T08:58:30.634Z,989.83
2022-09-10T08:59:30.622Z,989.86
2022-09-10T09:00:30.617Z,989.83
2022-09-10T09:01:30.707Z,989.90
2022-09-10T09:02:47.832Z,989.92
2022-09-10T09:03:32.601Z,989.90
2022-09-10T09:04:30.589Z,989.91
2022-09-10T09:05:30.575Z,989.87
2022-09-10T09:06:30.568Z,989.93
2022-09-10T09:07:30.566Z,989.94
2022-09-10T09:08:30.563Z,989.86
2022-09-10T09:09:31.199Z,989.89
2022-09-10T09:10:30.529Z,989.90
2022-09-10T09:11:30.537Z,989.94
2022-09-10T09:12:30.525Z,989.95
2022-09-10T09:13:30.512Z,989.92
2022-09-10T09:14:30.503Z,989.91
2022-09-10T09:15:30.542Z,989.96
2022-09-10T09:16:30.482Z,989.92
2022-09-10T09:17:31.499Z,989.96
2022-09-10T09:18:30.480Z,989.94
2022-09-10T09:19:30.460Z,989.98
2022-09-10T09:20:30.458Z,989.94
2022-09-10T09:21:30.452Z,989.93
2022-09-10T09:22:30.493Z,989.93
2022-09-10T09:23:30.435Z,989.96
2022-09-10T09:24:30.437Z,989.93
2022-09-10T09:25:30.426Z,989.87
2022-09-10T09:26:30.418Z,989.91
2022-09-10T09:27:30.403Z,989.85
2022-09-10T09:28:30.390Z,989.90
2022-09-10T09:29:31.110Z,989.92
2022-09-10T09:30:30.370Z,989.97
2022-09-10T09:31:30.417Z,989.91
2022-09-10T09:32:30.393Z,989.90
2022-09-10T09:33:30.348Z,989.93
2022-09-10T09:34:31.110Z,989.84
2022-09-10T09:35:30.332Z,989.89
2022-09-10T09:36:30.323Z,989.89
2022-09-10T09:37:30.328Z,989.82
2022-09-10T09:38:30.311Z,989.84
2022-09-10T09:39:30.314Z,989.88
2022-09-10T09:40:30.294Z,989.86
2022-09-10T09:41:30.289Z,989.87
2022-09-10T09:42:30.285Z,989.80
2022-09-10T09:43:30.276Z,989.79
2022-09-10T09:44:30.264Z,989.79
2022-09-10T09:45:30.356Z,989.79
2022-09-10T09:46:30.253Z,989.81
2022-09-10T09:47:30.344Z,989.82
2022-09-10T09:48:30.238Z,989.82
2022-09-10T09:49:30.222Z,989.78
2022-09-10T09:50:30.208Z,989.78
2022-09-10T09:51:31.210Z,989.78
2022-09-10T09:52:30.207Z,989.80
2022-09-10T09:53:30.203Z,989.80
2022-09-10T09:55:12.572Z,989.80
2022-09-10T09:55:32.178Z,989.81
2022-09-10T09:56:30.196Z,989.86
2022-09-10T09:57:30.177Z,989.83
2022-09-10T09:58:30.156Z,989.85
2022-09-10T09:59:30.149Z,989.84
2022-09-10T10:00:30.146Z,989.81
2022-09-10T10:01:30.151Z,989.81
2022-09-10T10:02:30.156Z,989.84
2022-09-10T10:03:30.113Z,989.78
2022-09-10T10:04:30.114Z,989.80
2022-09-10T10:05:30.102Z,989.77
2022-09-10T10:06:30.101Z,989.69
2022-09-10T10:07:30.087Z,989.74
2022-09-10T10:08:30.085Z,989.74
2022-09-10T10:09:30.075Z,989.69
2022-09-10T10:10:30.060Z,989.70
2022-09-10T10:11:30.065Z,989.72
2022-09-10T10:12:30.039Z,989.67
2022-09-10T10:13:30.049Z,989.66
2022-09-10T10:14:30.029Z,989.65
2022-09-10T10:15:30.052Z,989.66
2022-09-10T10:16:30.024Z,989.54
2022-09-10T10:17:30.053Z,989.59
2022-09-10T10:18:29.999Z,989.58
2022-09-10T10:19:30.030Z,989.58
2022-09-10T10:20:29.980Z,989.60
2022-09-10T10:21:29.980Z,989.58
2022-09-10T10:22:29.976Z,989.60
2022-09-10T10:23:31.209Z,989.51
2022-09-10T10:24:30.952Z,989.53
2022-09-10T10:25:29.965Z,989.57
2022-09-10T10:26:29.954Z,989.56
2022-09-10T10:27:29.930Z,989.51
2022-09-10T10:28:29.928Z,989.44
2022-09-10T10:29:29.911Z,989.45
2022-09-10T10:30:29.911Z,989.46
2022-09-10T10:31:29.895Z,989.50
2022-09-10T10:32:29.888Z,989.45
2022-09-10T10:33:29.886Z,989.40
2022-09-10T10:34:29.874Z,989.39
2022-09-10T10:35:29.918Z,989.42
2022-09-10T10:36:29.862Z,989.40
2022-09-10T10:37:29.851Z,989.37
2022-09-10T10:38:29.841Z,989.40
2022-09-10T10:39:29.837Z,989.42
2022-09-10T10:40:29.830Z,989.37
2022-09-10T10:41:29.837Z,989.40
2022-09-10T10:42:30.709Z,989.42
2022-09-10T10:43:29.811Z,989.46
2022-09-10T10:44:29.797Z,989.43
2022-09-10T10:45:29.786Z,989.33
2022-09-10T10:46:29.816Z,989.40
2022-09-10T10:47:29.773Z,989.40
2022-09-10T10:48:29.759Z,989.34
2022-09-10T10:49:29.748Z,989.39
2022-09-10T10:50:29.740Z,989.40
2022-09-10T10:51:29.744Z,989.36
2022-09-10T10:52:29.735Z,989.41
2022-09-10T10:53:29.723Z,989.33
2022-09-10T10:54:29.716Z,989.34
2022-09-10T10:55:29.705Z,989.37
2022-09-10T10:56:29.710Z,989.36
2022-09-10T10:57:29.771Z,989.40
2022-09-10T10:58:29.683Z,989.40
2022-09-10T10:59:29.693Z,989.38
2022-09-10T11:00:29.664Z,989.39
2022-09-10T11:01:29.706Z,989.41
2022-09-10T11:02:29.684Z,989.39
2022-09-10T11:03:29.640Z,989.48
2022-09-10T11:04:29.639Z,989.37
2022-09-10T11:05:29.630Z,989.44
2022-09-10T11:06:29.633Z,989.36
2022-09-10T11:07:29.603Z,989.41
2022-09-10T11:08:29.598Z,989.44
2022-09-10T11:09:30.220Z,989.39
2022-09-10T11:10:29.591Z,989.38
2022-09-10T11:11:29.586Z,989.33
2022-09-10T11:12:29.566Z,989.41
2022-09-10T11:13:30.228Z,989.39
2022-09-10T11:14:29.574Z,989.43
2022-09-10T11:15:29.541Z,989.39
2022-09-10T11:16:29.534Z,989.35
2022-09-10T11:17:29.531Z,989.43
2022-09-10T11:18:29.523Z,989.44
2022-09-10T11:19:29.521Z,989.44
2022-09-10T11:20:30.265Z,989.45
2022-09-10T11:21:30.498Z,989.46
2022-09-10T11:22:29.499Z,989.46
2022-09-10T11:23:29.479Z,989.43
2022-09-10T11:24:29.491Z,989.48
2022-09-10T11:25:29.462Z,989.45
2022-09-10T11:26:29.459Z,989.49
2022-09-10T11:27:29.448Z,989.50
2022-09-10T11:28:29.441Z,989.42
2022-09-10T11:29:29.446Z,989.52
2022-09-10T11:30:29.436Z,989.44
2022-09-10T11:31:29.433Z,989.47
2022-09-10T11:32:29.412Z,989.48
2022-09-10T11:33:29.393Z,989.46
2022-09-10T11:34:29.400Z,989.42
2022-09-10T11:35:29.383Z,989.54
2022-09-10T11:36:29.371Z,989.56
2022-09-10T11:37:29.362Z,989.46
2022-09-10T11:38:29.356Z,989.50
2022-09-10T11:39:29.345Z,989.49
2022-09-10T11:40:29.377Z,989.52
2022-09-10T11:41:29.330Z,989.50
2022-09-10T11:42:29.329Z,989.48
2022-09-10T11:43:29.327Z,989.49
2022-09-10T11:44:32.355Z,989.51
2022-09-10T11:45:30.309Z,989.51
2022-09-10T11:46:30.303Z,989.53
2022-09-10T11:47:29.301Z,989.51
2022-09-10T11:48:33.293Z,989.49
2022-09-10T11:49:31.234Z,989.44
2022-09-10T11:50:34.539Z,989.41
2022-09-10T11:51:30.247Z,989.51
2022-09-10T11:52:29.427Z,989.46
2022-09-10T11:54:01.700Z,989.45
2022-09-10T11:54:29.223Z,989.44
2022-09-10T11:55:29.225Z,989.44
2022-09-10T11:56:29.208Z,989.44
2022-09-10T11:57:30.215Z,989.53
2022-09-10T11:58:29.202Z,989.46
2022-09-10T11:59:29.194Z,989.44
2022-09-10T12:00:29.181Z,989.42
2022-09-10T12:01:29.171Z,989.43
2022-09-10T12:02:29.226Z,989.42
2022-09-10T12:03:29.724Z,989.35
2022-09-10T12:04:29.178Z,989.35
2022-09-10T12:05:29.145Z,989.43
2022-09-10T12:06:29.131Z,989.43
2022-09-10T12:07:29.134Z,989.39
2022-09-10T12:08:29.118Z,989.36
2022-09-10T12:09:29.143Z,989.35
2022-09-10T12:10:29.106Z,989.35
2022-09-10T12:11:29.107Z,989.33
2022-09-10T12:12:29.084Z,989.35
2022-09-10T12:13:29.078Z,989.35
2022-09-10T12:14:29.108Z,989.34
2022-09-10T12:15:29.056Z,989.26
2022-09-10T12:16:29.056Z,989.29
2022-09-10T12:17:29.081Z,989.27
2022-09-10T12:18:29.057Z,989.26
2022-09-10T12:19:29.345Z,989.30
2022-09-10T12:20:29.020Z,989.24
2022-09-10T12:21:29.025Z,989.26
2022-09-10T12:22:29.007Z,989.33
2022-09-10T12:23:28.991Z,989.35
2022-09-10T12:24:28.993Z,989.37
2022-09-10T12:25:33.629Z,989.36
2022-09-10T12:26:30.972Z,989.32
2022-09-10T12:27:28.973Z,989.36
2022-09-10T12:28:29.768Z,989.36
2022-09-10T12:29:28.951Z,989.37
2022-09-10T12:30:28.938Z,989.36